Time;durP1;ratioP1;P1;durP2;ratioP2;P2;SDS_P1;SDS_P2;PMS_P1;PMS_P2;Temp;Humidity;BMP_temperature;BMP_pressure;BME280_temperature;BME280_humidity;BME280_pressure;Samples;Min_cycle;Max_cycle;Signal;HPM_P1;HPM_P2
2023/01/27 00:03:32;;;;;;;4.13;1.40;;;6.80;99.90;;;;;;10319096;28;20272;-63
2023/01/27 00:08:33;;;;;;;3.40;1.10;;;6.70;99.90;;;;;;10316842;28;20025;-63
2023/01/27 00:13:33;;;;;;;2.00;1.00;;;6.80;99.90;;;;;;10314773;28;20058;-63
2023/01/27 00:18:34;;;;;;;2.95;1.20;;;6.70;99.90;;;;;;10319746;28;20023;-63
2023/01/27 00:28:54;;;;;;;2.13;1.13;;;6.80;99.90;;;;;;10320816;28;20414;-63
2023/01/27 00:34:00;;;;;;;2.95;1.40;;;7.50;99.90;;;;;;10315809;28;20057;-63
2023/01/27 00:39:02;;;;;;;2.75;1.40;;;6.80;99.90;;;;;;10318052;28;20018;-63
2023/01/27 00:44:04;;;;;;;2.80;1.13;;;6.80;99.90;;;;;;10319444;28;20433;-63
2023/01/27 00:49:05;;;;;;;2.15;1.15;;;6.80;99.90;;;;;;10310752;28;20088;-63
2023/01/27 00:54:05;;;;;;;3.33;1.10;;;6.80;99.90;;;;;;10316632;28;20050;-63
2023/01/27 00:59:06;;;;;;;3.05;1.17;;;6.70;99.90;;;;;;10314195;28;20030;-63
2023/01/27 01:04:07;;;;;;;2.47;1.45;;;6.80;99.90;;;;;;10316886;28;20314;-63
2023/01/27 01:09:07;;;;;;;3.00;1.13;;;6.80;99.90;;;;;;10314834;28;20022;-63
2023/01/27 01:14:08;;;;;;;3.17;1.35;;;6.80;99.90;;;;;;10314716;28;20116;-63
2023/01/27 01:19:08;;;;;;;2.90;1.52;;;6.70;99.90;;;;;;10319297;28;20479;-63
2023/01/27 01:24:09;;;;;;;2.85;1.10;;;6.80;99.90;;;;;;10318919;28;20077;-63
2023/01/27 01:29:09;;;;;;;2.58;1.60;;;6.80;99.90;;;;;;10320350;28;20093;-63
2023/01/27 01:34:10;;;;;;;2.80;1.52;;;6.70;99.90;;;;;;10313713;28;20034;-63
2023/01/27 01:39:11;;;;;;;2.95;1.35;;;6.80;99.90;;;;;;10318060;28;20030;-63
2023/01/27 01:44:21;;;;;;;2.60;1.23;;;6.80;99.90;;;;;;10317896;28;20442;-63
2023/01/27 01:49:28;;;;;;;3.10;1.58;;;6.80;99.90;;;;;;10315905;28;20022;-63
2023/01/27 01:54:33;;;;;;;2.97;1.65;;;6.80;99.90;;;;;;10318147;28;20105;-63
2023/01/27 02:00:03;;;;;;;3.45;1.67;;;6.80;99.90;;;;;;10316183;28;20124;-63
2023/01/27 02:05:09;;;;;;;3.28;1.60;;;6.80;99.90;;;;;;10311956;28;20092;-63
2023/01/27 02:10:11;;;;;;;2.72;1.40;;;6.80;99.90;;;;;;10311692;28;20046;-63
2023/01/27 02:15:12;;;;;;;2.88;1.35;;;6.70;99.90;;;;;;10313499;28;20033;-63
2023/01/27 02:20:41;;;;;;;3.40;1.40;;;6.80;99.90;;;;;;10315877;28;20134;-62
2023/01/27 02:25:57;;;;;;;2.50;1.38;;;6.70;99.90;;;;;;10315492;28;20061;-63
2023/01/27 02:30:58;;;;;;;2.13;1.40;;;6.80;99.90;;;;;;10311763;28;20026;-63
2023/01/27 02:36:11;;;;;;;3.67;1.50;;;6.80;99.90;;;;;;10325831;28;20041;-63
2023/01/27 02:41:30;;;;;;;3.00;1.23;;;6.80;99.90;;;;;;10319998;28;20022;-63
2023/01/27 02:46:31;;;;;;;2.75;1.17;;;6.80;99.90;;;;;;10323986;28;20038;-63
2023/01/27 02:51:32;;;;;;;2.13;1.40;;;6.80;99.90;;;;;;10325123;28;20023;-63
2023/01/27 02:56:33;;;;;;;2.58;1.48;;;6.80;99.90;;;;;;10320810;28;20204;-63
2023/01/27 03:01:33;;;;;;;1.75;1.10;;;6.80;99.90;;;;;;10325230;28;20030;-63
2023/01/27 03:06:34;;;;;;;3.88;1.30;;;6.70;99.90;;;;;;10323693;28;20084;-63
2023/01/27 03:22:13;;;;;;;1.88;1.10;;;6.70;99.90;;;;;;10325861;28;20365;-63
2023/01/27 03:27:13;;;;;;;2.10;1.20;;;6.80;99.90;;;;;;10336815;28;20030;-63
2023/01/27 03:32:14;;;;;;;2.28;1.33;;;6.80;99.90;;;;;;10336495;28;20113;-63
2023/01/27 03:47:53;;;;;;;3.08;1.20;;;6.70;99.90;;;;;;10336171;28;20035;-63
2023/01/27 03:53:03;;;;;;;1.63;0.95;;;6.70;99.90;;;;;;10336130;28;20490;-62
2023/01/27 03:58:17;;;;;;;2.15;1.35;;;6.80;99.90;;;;;;10336036;28;20105;-62
2023/01/27 04:08:40;;;;;;;1.67;1.08;;;6.80;99.90;;;;;;10335434;28;20086;-62
2023/01/27 04:13:41;;;;;;;1.38;0.90;;;6.70;99.90;;;;;;10334913;28;20034;-62
2023/01/27 04:18:41;;;;;;;1.73;1.05;;;6.80;99.90;;;;;;10335044;28;20045;-62
2023/01/27 04:23:42;;;;;;;2.85;1.52;;;6.80;99.90;;;;;;10334325;28;20156;-62
2023/01/27 04:28:43;;;;;;;2.40;1.20;;;6.80;99.90;;;;;;10334744;28;20026;-61
2023/01/27 04:33:44;;;;;;;1.35;0.90;;;6.80;99.90;;;;;;10334367;28;20367;-62
2023/01/27 04:38:44;;;;;;;2.17;1.08;;;6.80;99.90;;;;;;10334174;28;20109;-61
2023/01/27 04:43:45;;;;;;;1.40;0.93;;;6.80;99.90;;;;;;10333909;28;20117;-62
2023/01/27 04:48:46;;;;;;;2.10;1.02;;;6.80;99.90;;;;;;10333700;28;20485;-62
2023/01/27 04:53:46;;;;;;;1.45;0.90;;;6.80;99.90;;;;;;10333974;28;20110;-63
2023/01/27 04:58:47;;;;;;;1.55;0.95;;;6.80;99.90;;;;;;10333426;28;20038;-63
2023/01/27 05:03:48;;;;;;;1.92;0.93;;;6.80;99.90;;;;;;10332859;28;20406;-62
2023/01/27 05:08:49;;;;;;;1.52;0.98;;;6.80;99.90;;;;;;10332988;28;20022;-62
2023/01/27 05:13:49;;;;;;;1.55;1.00;;;6.80;99.90;;;;;;10332234;28;20034;-62
2023/01/27 05:18:51;;;;;;;1.30;0.73;;;6.80;99.90;;;;;;10332610;28;20022;-62
2023/01/27 05:23:52;;;;;;;1.17;0.85;;;6.80;99.90;;;;;;10332221;28;20523;-63
2023/01/27 05:28:55;;;;;;;1.42;0.90;;;6.80;99.90;;;;;;10332201;28;20097;-62
2023/01/27 05:33:58;;;;;;;1.30;0.90;;;6.80;99.90;;;;;;10331870;28;20019;-62
2023/01/27 05:38:59;;;;;;;2.47;1.10;;;6.80;99.90;;;;;;10331823;28;20054;-62
2023/01/27 05:43:59;;;;;;;1.20;0.80;;;7.10;99.90;;;;;;10331534;28;20031;-63
2023/01/27 05:49:04;;;;;;;2.05;0.93;;;6.80;99.90;;;;;;10331509;28;20042;-62
2023/01/27 05:54:05;;;;;;;1.60;1.00;;;6.80;99.90;;;;;;10331261;28;20054;-62
2023/01/27 05:59:05;;;;;;;2.85;0.85;;;6.80;99.90;;;;;;10331282;28;20105;-62
2023/01/27 06:04:06;;;;;;;1.20;0.75;;;7.30;99.90;;;;;;10330776;28;20125;-62
2023/01/27 06:09:08;;;;;;;1.65;0.80;;;6.80;99.90;;;;;;10330435;28;20022;-62
2023/01/27 06:14:09;;;;;;;1.23;0.80;;;6.80;99.90;;;;;;10330484;28;20031;-62
2023/01/27 06:19:10;;;;;;;1.55;0.77;;;6.80;99.90;;;;;;10330764;28;20037;-63
2023/01/27 06:24:10;;;;;;;0.85;0.70;;;6.70;99.90;;;;;;10330415;28;20038;-63
2023/01/27 06:29:11;;;;;;;1.17;0.70;;;6.80;99.90;;;;;;10330450;28;20035;-63
2023/01/27 06:34:12;;;;;;;0.95;0.70;;;6.80;99.90;;;;;;10329000;28;20463;-63
2023/01/27 06:39:12;;;;;;;1.00;0.82;;;6.80;99.90;;;;;;10330102;28;20453;-62
2023/01/27 06:44:13;;;;;;;0.95;0.60;;;6.80;99.90;;;;;;10329792;28;20034;-63
2023/01/27 06:49:14;;;;;;;0.90;0.75;;;6.80;99.90;;;;;;10329670;28;20022;-62
2023/01/27 06:54:15;;;;;;;0.90;0.60;;;6.80;99.90;;;;;;10329815;28;20035;-63
2023/01/27 06:59:15;;;;;;;0.90;0.55;;;6.80;99.90;;;;;;10329615;28;20104;-64
2023/01/27 07:04:16;;;;;;;1.00;0.70;;;6.80;99.90;;;;;;10328926;28;20061;-63
2023/01/27 07:09:20;;;;;;;1.27;0.70;;;6.80;99.90;;;;;;10329646;28;20045;-62
2023/01/27 07:14:20;;;;;;;1.25;0.90;;;6.80;99.90;;;;;;10328154;28;20034;-63
2023/01/27 07:19:21;;;;;;;1.42;0.80;;;6.80;99.90;;;;;;10333082;28;20097;-62
2023/01/27 07:24:22;;;;;;;1.20;0.60;;;6.70;99.90;;;;;;10336618;28;20085;-62
2023/01/27 07:29:22;;;;;;;0.95;0.70;;;6.70;99.90;;;;;;10336592;28;20019;-62
2023/01/27 07:34:23;;;;;;;0.90;0.75;;;6.70;99.90;;;;;;10336501;28;20482;-62
2023/01/27 07:39:25;;;;;;;4.00;0.80;;;6.70;99.90;;;;;;10336023;28;20357;-63
2023/01/27 07:44:27;;;;;;;0.80;0.70;;;6.70;99.90;;;;;;10335871;28;20058;-63
2023/01/27 07:49:27;;;;;;;1.20;0.70;;;6.80;99.90;;;;;;10335980;28;20076;-64
2023/01/27 07:54:28;;;;;;;1.45;0.70;;;6.80;99.90;;;;;;10335877;28;20092;-63
2023/01/27 07:59:28;;;;;;;1.25;0.77;;;6.80;99.90;;;;;;10335851;28;20050;-63
2023/01/27 08:04:29;;;;;;;1.25;0.75;;;6.80;99.90;;;;;;10335519;28;20367;-63
2023/01/27 08:09:29;;;;;;;0.63;0.52;;;6.80;99.90;;;;;;10334702;28;20036;-63
2023/01/27 08:14:30;;;;;;;1.23;0.80;;;6.80;99.90;;;;;;10333281;28;20046;-63
2023/01/27 08:19:31;;;;;;;1.52;0.60;;;6.80;99.90;;;;;;10334365;28;20451;-63
2023/01/27 08:24:31;;;;;;;0.85;0.63;;;6.80;99.90;;;;;;10334638;28;20038;-63
2023/01/27 08:29:32;;;;;;;0.93;0.70;;;6.80;99.90;;;;;;10334850;28;20057;-62
2023/01/27 08:34:33;;;;;;;1.13;0.80;;;6.80;99.90;;;;;;10333400;28;20107;-62
2023/01/27 08:39:34;;;;;;;0.82;0.70;;;6.80;99.90;;;;;;10334449;28;20026;-62
2023/01/27 08:44:34;;;;;;;0.80;0.63;;;6.80;99.90;;;;;;10326737;22;20039;-72
2023/01/27 08:49:39;;;;;;;0.75;0.50;;;6.80;99.90;;;;;;10277801;28;20510;-73
2023/01/27 08:54:40;;;;;;;1.15;0.50;;;6.80;99.90;;;;;;10259025;28;20023;-73
2023/01/27 08:59:40;;;;;;;1.00;0.60;;;6.80;99.90;;;;;;10256065;28;20039;-73
2023/01/27 09:04:43;;;;;;;1.35;0.77;;;6.90;99.90;;;;;;10263412;28;20027;-73
2023/01/27 09:12:49;;;;;;;3.17;0.70;;;6.90;99.90;;;;;;10571884;27;20140;-66
2023/01/27 09:17:50;;;;;;;1.63;0.68;;;7.00;99.90;;;;;;10557131;28;20157;-67
2023/01/27 09:22:53;;;;;;;1.02;0.70;;;7.10;99.90;;;;;;10562502;27;20164;-67
2023/01/27 09:27:55;;;;;;;0.93;0.55;;;7.10;99.90;;;;;;10557514;28;20016;-65
2023/01/27 09:33:00;;;;;;;1.15;0.93;;;7.10;99.90;;;;;;10553177;28;20023;-64
2023/01/27 09:38:05;;;;;;;1.45;0.80;;;7.20;99.90;;;;;;10549880;28;20020;-65
2023/01/27 09:43:38;;;;;;;0.93;0.68;;;7.20;99.90;;;;;;10552416;28;20122;-66
2023/01/27 09:49:10;;;;;;;0.50;0.50;;;7.20;99.90;;;;;;10554050;27;20075;-65
2023/01/27 09:54:22;;;;;;;1.02;0.60;;;7.20;99.90;;;;;;10550207;28;20030;-65
2023/01/27 09:59:42;;;;;;;0.77;0.50;;;7.20;99.90;;;;;;10555978;27;20024;-67
2023/01/27 10:04:58;;;;;;;0.93;0.60;;;7.20;99.90;;;;;;10555885;28;20028;-65
2023/01/27 10:10:18;;;;;;;1.02;0.60;;;7.20;99.90;;;;;;10563212;28;20027;-66
2023/01/27 10:15:43;;;;;;;0.88;0.70;;;7.20;99.90;;;;;;10555689;27;20019;-64
2023/01/27 10:21:16;;;;;;;0.90;0.80;;;7.20;99.90;;;;;;10548709;28;20027;-65
2023/01/27 10:26:26;;;;;;;1.27;0.68;;;7.20;99.90;;;;;;10466815;28;20060;-65
2023/01/27 10:31:41;;;;;;;1.77;0.77;;;7.20;99.90;;;;;;10521966;28;20024;-65
2023/01/27 10:36:47;;;;;;;3.65;0.80;;;7.20;99.90;;;;;;10515622;28;20512;-65
2023/01/27 10:42:18;;;;;;;1.00;0.70;;;7.30;99.90;;;;;;10519375;28;20449;-66
2023/01/27 10:47:40;;;;;;;0.70;0.60;;;7.30;99.90;;;;;;10474418;22;20324;-74
2023/01/27 10:53:00;;;;;;;1.60;0.90;;;7.30;99.90;;;;;;10441599;28;20025;-74
2023/01/27 10:58:10;;;;;;;0.85;0.52;;;7.20;99.90;;;;;;10445106;28;20126;-74
2023/01/27 11:03:22;;;;;;;1.15;0.70;;;7.20;99.90;;;;;;10442845;28;20074;-74
2023/01/27 11:08:26;;;;;;;1.25;0.70;;;7.20;99.90;;;;;;10436898;28;20167;-74
2023/01/27 11:13:30;;;;;;;1.23;0.70;;;7.20;99.90;;;;;;10439371;28;20025;-74
2023/01/27 11:18:34;;;;;;;2.08;0.60;;;7.20;99.90;;;;;;10442577;28;20723;-74
2023/01/27 11:23:47;;;;;;;1.17;0.60;;;7.20;99.90;;;;;;10439086;28;20402;-74
2023/01/27 11:29:08;;;;;;;1.02;0.65;;;7.20;99.90;;;;;;10436520;28;20029;-76
2023/01/27 11:39:20;;;;;;;3.53;0.70;;;7.20;99.90;;;;;;10408854;22;20575;-75
2023/01/27 11:44:29;;;;;;;1.17;0.80;;;7.40;99.90;;;;;;10442775;22;20030;-75
2023/01/27 11:49:34;;;;;;;1.52;0.60;;;7.20;99.90;;;;;;10436147;28;20024;-75
2023/01/27 11:54:51;;;;;;;1.13;0.70;;;7.20;99.90;;;;;;10436619;28;20440;-74
2023/01/27 12:00:06;;;;;;;0.65;0.57;;;7.20;99.90;;;;;;10429555;28;20028;-74
2023/01/27 12:05:17;;;;;;;1.65;0.75;;;7.20;99.90;;;;;;10417279;28;20513;-74
2023/01/27 12:12:13;;;;;;;0.85;0.70;;;7.20;99.90;;;;;;10355538;28;20441;-66
2023/01/27 12:17:39;;;;;;;3.30;0.57;;;7.30;99.90;;;;;;10328488;28;20033;-64
2023/01/27 12:22:47;;;;;;;1.20;0.80;;;7.30;99.90;;;;;;10360500;28;20041;-65
2023/01/27 12:28:01;;;;;;;3.80;1.08;;;7.30;99.90;;;;;;10308106;28;20231;-67
2023/01/27 12:33:12;;;;;;;1.50;0.80;;;7.30;99.90;;;;;;10271765;28;20461;-67
2023/01/27 12:38:19;;;;;;;1.52;0.80;;;7.30;99.90;;;;;;10290475;28;20326;-67
2023/01/27 12:43:19;;;;;;;1.38;0.82;;;7.40;99.90;;;;;;10252725;28;20034;-67
2023/01/27 12:48:20;;;;;;;3.17;0.90;;;7.40;99.90;;;;;;10294984;28;20617;-66
2023/01/27 12:53:26;;;;;;;1.30;0.80;;;7.30;99.90;;;;;;10294411;28;20066;-67
2023/01/27 12:58:35;;;;;;;3.42;1.00;;;7.30;99.90;;;;;;10340195;28;20038;-68
2023/01/27 13:03:39;;;;;;;1.17;0.90;;;7.30;99.90;;;;;;10308147;28;20593;-66
2023/01/27 13:08:40;;;;;;;1.17;0.90;;;7.30;99.90;;;;;;10336262;28;20056;-67
2023/01/27 13:13:49;;;;;;;1.55;0.70;;;7.30;99.90;;;;;;10308844;28;20050;-66
2023/01/27 13:18:56;;;;;;;1.75;0.80;;;7.30;99.90;;;;;;10284960;28;20031;-66
2023/01/27 13:23:59;;;;;;;1.48;0.80;;;7.30;99.90;;;;;;10276104;28;20043;-70
2023/01/27 13:29:14;;;;;;;1.35;0.75;;;7.20;99.90;;;;;;10301569;28;20016;-68
2023/01/27 13:34:37;;;;;;;1.35;0.80;;;7.30;99.90;;;;;;10307601;28;20021;-68
2023/01/27 13:40:12;;;;;;;1.45;0.80;;;7.30;99.90;;;;;;10271186;28;20535;-66
2023/01/27 13:45:15;;;;;;;1.30;0.75;;;7.30;99.90;;;;;;10299281;28;20021;-66
2023/01/27 13:50:24;;;;;;;1.38;1.08;;;7.30;99.90;;;;;;10306156;28;20035;-66
2023/01/27 13:55:32;;;;;;;1.60;0.80;;;7.30;99.90;;;;;;10271425;28;20469;-68
2023/01/27 14:00:41;;;;;;;1.10;0.80;;;7.20;99.90;;;;;;10333953;28;20106;-67
2023/01/27 14:06:04;;;;;;;2.55;1.00;;;7.20;99.90;;;;;;10312575;28;20037;-67
2023/01/27 14:11:21;;;;;;;1.42;0.80;;;7.20;99.90;;;;;;10258189;28;20066;-67
2023/01/27 14:16:41;;;;;;;1.00;0.80;;;7.20;99.90;;;;;;10294930;28;20111;-67
2023/01/27 14:21:56;;;;;;;1.27;0.70;;;7.30;99.90;;;;;;10328659;28;20462;-70
2023/01/27 14:27:04;;;;;;;2.58;0.80;;;7.20;99.90;;;;;;10304025;28;20440;-66
2023/01/27 14:32:25;;;;;;;1.05;0.80;;;7.20;99.90;;;;;;10303133;28;20012;-67
2023/01/27 14:37:37;;;;;;;1.33;0.77;;;7.20;99.90;;;;;;10279298;28;20044;-67
2023/01/27 14:42:41;;;;;;;1.10;0.70;;;7.20;99.90;;;;;;10267083;28;20487;-66
2023/01/27 14:47:50;;;;;;;1.27;0.80;;;7.20;99.90;;;;;;10289987;28;20160;-67
2023/01/27 14:52:57;;;;;;;1.25;0.70;;;7.20;99.90;;;;;;10292570;28;20122;-65
2023/01/27 14:58:19;;;;;;;1.75;0.65;;;7.20;99.90;;;;;;10253233;28;20027;-64
2023/01/27 15:03:45;;;;;;;1.05;0.68;;;7.20;99.90;;;;;;10229118;28;20046;-65
2023/01/27 15:09:04;;;;;;;1.05;0.63;;;7.20;99.90;;;;;;10244064;28;20123;-65
2023/01/27 15:14:35;;;;;;;1.42;0.70;;;7.20;99.90;;;;;;10232142;28;20111;-65
2023/01/27 15:19:51;;;;;;;1.27;0.77;;;7.20;99.90;;;;;;10233131;28;20027;-65
2023/01/27 15:25:17;;;;;;;1.10;0.77;;;7.20;99.90;;;;;;10258602;28;20035;-65
2023/01/27 15:30:25;;;;;;;1.33;0.80;;;7.10;99.90;;;;;;10262106;28;20262;-65
2023/01/27 15:35:35;;;;;;;1.13;0.70;;;7.10;99.90;;;;;;10254468;28;20397;-66
2023/01/27 15:41:03;;;;;;;1.48;0.85;;;7.20;99.90;;;;;;10271084;28;20390;-66
2023/01/27 15:46:34;;;;;;;2.05;1.00;;;7.10;99.90;;;;;;10253153;28;20085;-66
2023/01/27 15:51:36;;;;;;;1.42;0.93;;;7.10;99.90;;;;;;10300416;28;20039;-66
2023/01/27 15:56:46;;;;;;;1.42;0.95;;;7.10;99.90;;;;;;10243665;28;20293;-71
2023/01/27 16:01:57;;;;;;;1.08;0.75;;;7.10;99.90;;;;;;10260390;28;20464;-67
2023/01/27 16:07:01;;;;;;;1.38;0.93;;;7.10;99.90;;;;;;10268856;28;20020;-67
2023/01/27 16:12:25;;;;;;;1.10;0.80;;;7.20;99.90;;;;;;10242215;28;20058;-68
2023/01/27 16:17:31;;;;;;;1.70;1.08;;;7.20;99.90;;;;;;10246024;28;20382;-67
2023/01/27 16:22:37;;;;;;;1.10;0.95;;;7.30;99.90;;;;;;10308372;28;20440;-67
2023/01/27 16:28:02;;;;;;;4.38;1.02;;;7.20;99.90;;;;;;10343920;28;20322;-68
2023/01/27 16:33:05;;;;;;;1.10;0.82;;;7.30;99.90;;;;;;10299928;28;20489;-69
2023/01/27 16:38:33;;;;;;;1.17;0.93;;;7.20;99.90;;;;;;10278415;28;20401;-69
2023/01/27 16:43:48;;;;;;;2.40;1.40;;;7.20;99.90;;;;;;10303032;28;20046;-73
2023/01/27 16:48:51;;;;;;;2.03;1.33;;;7.10;99.90;;;;;;10301180;28;20023;-68
2023/01/27 16:53:54;;;;;;;1.85;1.30;;;7.10;99.90;;;;;;10281924;28;20050;-69
2023/01/27 16:59:02;;;;;;;3.78;1.65;;;7.10;99.90;;;;;;10305192;28;20023;-69
2023/01/27 17:04:05;;;;;;;4.25;1.90;;;7.00;99.90;;;;;;10322778;28;20393;-68
2023/01/27 17:09:20;;;;;;;2.15;1.67;;;7.10;99.90;;;;;;10276967;28;20429;-68
2023/01/27 17:14:29;;;;;;;2.85;1.80;;;7.00;99.90;;;;;;10304896;28;20019;-68
2023/01/27 17:19:33;;;;;;;2.28;1.60;;;7.10;99.90;;;;;;10284347;28;20044;-67
2023/01/27 17:24:37;;;;;;;2.40;1.95;;;7.00;99.90;;;;;;10324430;28;20480;-67
2023/01/27 17:29:41;;;;;;;2.67;1.90;;;7.00;99.90;;;;;;10311173;28;20058;-67
2023/01/27 17:34:42;;;;;;;2.17;1.73;;;7.00;99.90;;;;;;10313969;28;20017;-67
2023/01/27 17:39:44;;;;;;;2.22;1.50;;;7.00;99.90;;;;;;10308167;28;20430;-65
2023/01/27 17:44:46;;;;;;;1.90;1.70;;;7.00;99.90;;;;;;10295977;28;20364;-66
2023/01/27 17:49:49;;;;;;;2.05;1.60;;;7.00;99.90;;;;;;10287322;28;20058;-69
2023/01/27 17:54:53;;;;;;;4.43;1.88;;;7.00;99.90;;;;;;10330124;28;20104;-70
2023/01/27 17:59:58;;;;;;;2.55;1.90;;;7.10;99.90;;;;;;10278567;28;20107;-67
2023/01/27 18:05:05;;;;;;;5.38;2.22;;;6.90;99.90;;;;;;10235751;28;20107;-66
2023/01/27 18:10:32;;;;;;;4.75;2.40;;;6.90;99.90;;;;;;10277842;28;20124;-65
2023/01/27 18:15:36;;;;;;;3.15;1.92;;;7.00;99.90;;;;;;10238242;28;20029;-65
2023/01/27 18:20:36;;;;;;;4.32;2.80;;;7.00;99.90;;;;;;10242202;28;20084;-66
2023/01/27 18:25:38;;;;;;;4.78;2.55;;;7.00;99.90;;;;;;10245425;28;20077;-67
2023/01/27 18:30:47;;;;;;;4.13;2.60;;;7.00;99.90;;;;;;10252219;28;20098;-69
2023/01/27 18:35:59;;;;;;;3.55;2.10;;;7.00;99.90;;;;;;10260256;28;20115;-68
2023/01/27 18:41:10;;;;;;;3.17;2.33;;;7.00;99.90;;;;;;10225359;28;20095;-65
2023/01/27 18:46:10;;;;;;;2.95;1.90;;;7.10;99.90;;;;;;10221836;28;20061;-66
2023/01/27 18:51:13;;;;;;;3.60;2.30;;;7.10;99.90;;;;;;10262355;28;20661;-65
2023/01/27 18:56:13;;;;;;;3.63;2.10;;;7.10;99.90;;;;;;10254045;28;20110;-65
2023/01/27 19:01:20;;;;;;;3.63;2.10;;;7.00;99.90;;;;;;10265232;28;20033;-65
2023/01/27 19:06:21;;;;;;;2.95;2.17;;;7.10;99.90;;;;;;10278088;28;20497;-65
2023/01/27 19:11:21;;;;;;;3.40;1.95;;;7.00;99.90;;;;;;10295038;28;20036;-65
2023/01/27 19:16:22;;;;;;;3.25;2.28;;;7.00;99.90;;;;;;10280542;28;20208;-66
2023/01/27 19:21:22;;;;;;;3.03;1.92;;;7.00;99.90;;;;;;10288210;28;20507;-66
2023/01/27 19:26:23;;;;;;;2.75;1.85;;;7.00;99.90;;;;;;10283720;28;20026;-66
2023/01/27 19:31:24;;;;;;;2.97;2.10;;;7.00;99.90;;;;;;10337222;28;20027;-66
2023/01/27 19:36:27;;;;;;;3.90;2.45;;;7.00;99.90;;;;;;10276340;28;20019;-66
2023/01/27 19:41:28;;;;;;;2.92;2.10;;;7.00;99.90;;;;;;10271075;28;20037;-66
2023/01/27 19:46:29;;;;;;;4.25;2.33;;;7.00;99.90;;;;;;10303168;28;20074;-66
2023/01/27 19:51:31;;;;;;;3.95;2.17;;;7.00;99.90;;;;;;10278717;28;20096;-65
2023/01/27 19:56:31;;;;;;;3.05;2.13;;;7.00;99.90;;;;;;10317872;28;20015;-66
2023/01/27 20:01:32;;;;;;;3.35;1.88;;;7.00;99.90;;;;;;10298913;28;20315;-66
2023/01/27 20:06:33;;;;;;;3.40;2.08;;;6.90;99.90;;;;;;10297514;28;20032;-66
2023/01/27 20:11:39;;;;;;;2.47;1.90;;;7.00;99.90;;;;;;10297705;28;20071;-66
2023/01/27 20:16:40;;;;;;;4.18;2.30;;;7.00;99.90;;;;;;10278710;28;20024;-67
2023/01/27 20:21:42;;;;;;;3.35;1.95;;;7.00;99.90;;;;;;10324468;28;20142;-67
2023/01/27 20:26:43;;;;;;;3.97;2.50;;;6.90;99.90;;;;;;10318384;28;20017;-67
2023/01/27 20:31:44;;;;;;;3.33;1.95;;;6.90;99.90;;;;;;10255158;28;20025;-67
2023/01/27 20:36:44;;;;;;;2.75;2.10;;;6.90;99.90;;;;;;10287964;28;20110;-67
2023/01/27 20:41:45;;;;;;;3.70;2.40;;;6.90;99.90;;;;;;10309419;28;20077;-67
2023/01/27 20:46:45;;;;;;;3.38;2.13;;;6.90;99.90;;;;;;10300879;28;20040;-67
2023/01/27 20:51:46;;;;;;;3.17;1.80;;;6.90;99.90;;;;;;10307999;28;20060;-68
2023/01/27 20:56:47;;;;;;;3.63;2.38;;;6.90;99.90;;;;;;10264964;28;20025;-68
2023/01/27 21:01:47;;;;;;;2.72;2.15;;;6.90;99.90;;;;;;10325173;28;20013;-67
2023/01/27 21:06:48;;;;;;;3.30;2.17;;;6.90;99.90;;;;;;10284932;28;20082;-67
2023/01/27 21:11:48;;;;;;;4.75;2.13;;;6.90;99.90;;;;;;10287701;28;20037;-67
2023/01/27 21:16:49;;;;;;;4.13;2.33;;;6.90;99.90;;;;;;10282100;28;20035;-67
2023/01/27 21:21:50;;;;;;;3.38;2.03;;;6.90;99.90;;;;;;10333455;28;20019;-67
2023/01/27 21:26:52;;;;;;;2.90;2.05;;;6.90;99.90;;;;;;10340590;28;20452;-67
2023/01/27 21:31:53;;;;;;;4.57;2.70;;;6.90;99.90;;;;;;10260581;28;20023;-67
2023/01/27 21:36:54;;;;;;;3.42;2.35;;;6.90;99.90;;;;;;10288939;28;20019;-67
2023/01/27 21:46:55;;;;;;;2.72;1.95;;;6.90;99.90;;;;;;10256931;28;20031;-67
2023/01/27 21:51:56;;;;;;;3.63;2.30;;;6.80;99.90;;;;;;10318604;28;20060;-67
2023/01/27 21:56:57;;;;;;;3.33;2.30;;;6.80;99.90;;;;;;10311740;28;20499;-67
2023/01/27 22:01:57;;;;;;;3.72;2.50;;;6.80;99.90;;;;;;10333953;28;20031;-66
2023/01/27 22:06:58;;;;;;;2.88;2.00;;;6.80;99.90;;;;;;10300138;28;20027;-66
2023/01/27 22:11:58;;;;;;;3.17;2.38;;;6.80;99.90;;;;;;10300419;28;20028;-66
2023/01/27 22:17:00;;;;;;;4.07;2.40;;;6.80;99.90;;;;;;10306933;28;20023;-67
2023/01/27 22:22:00;;;;;;;3.97;2.38;;;6.80;99.90;;;;;;10316826;28;20398;-67
2023/01/27 22:27:01;;;;;;;3.55;2.20;;;6.80;99.90;;;;;;10307573;28;20031;-66
2023/01/27 22:32:02;;;;;;;5.10;2.58;;;6.80;99.90;;;;;;10286895;28;20023;-67
2023/01/27 22:37:02;;;;;;;3.78;2.38;;;6.80;99.90;;;;;;10289615;28;20050;-67
2023/01/27 22:42:03;;;;;;;2.97;2.50;;;6.80;99.90;;;;;;10299333;28;20536;-67
2023/01/27 22:47:04;;;;;;;3.78;2.65;;;6.80;99.90;;;;;;10272285;28;20032;-67
2023/01/27 22:52:05;;;;;;;3.75;2.50;;;6.80;99.90;;;;;;10246869;28;20538;-67
2023/01/27 22:57:05;;;;;;;3.03;2.13;;;6.80;99.90;;;;;;10256184;28;20042;-66
2023/01/27 23:02:06;;;;;;;3.38;2.50;;;6.80;99.90;;;;;;10303093;28;20482;-67
2023/01/27 23:07:07;;;;;;;3.45;2.40;;;6.80;99.90;;;;;;10274017;28;20032;-68
2023/01/27 23:12:07;;;;;;;3.42;2.40;;;6.80;99.90;;;;;;10261715;28;20222;-68
2023/01/27 23:17:08;;;;;;;3.45;2.38;;;6.80;99.90;;;;;;10291801;28;20516;-67
2023/01/27 23:22:09;;;;;;;3.10;2.45;;;6.80;99.90;;;;;;10270675;28;20035;-67
2023/01/27 23:27:09;;;;;;;4.75;2.70;;;6.80;99.90;;;;;;10290328;28;20324;-67
2023/01/27 23:32:10;;;;;;;4.68;2.60;;;6.80;99.90;;;;;;10260915;28;20035;-68
2023/01/27 23:37:11;;;;;;;2.95;2.10;;;6.80;99.90;;;;;;10296127;28;20478;-68
2023/01/27 23:42:11;;;;;;;3.42;2.47;;;6.80;99.90;;;;;;10285947;28;20046;-68
2023/01/27 23:47:13;;;;;;;3.90;2.65;;;6.80;99.90;;;;;;10316845;28;20171;-67
2023/01/27 23:52:14;;;;;;;3.78;2.50;;;6.80;99.90;;;;;;10318246;28;20031;-67
2023/01/27 23:57:15;;;;;;;3.45;2.38;;;6.80;99.90;;;;;;10275867;28;20022;-68
